createdAt,value
2017-11-30T00:00:53.707Z,99639.67
2017-11-30T00:01:56.179Z,99643.04
2017-11-30T00:02:58.683Z,99644.56
2017-11-30T00:04:01.165Z,99637.65
2017-11-30T00:05:03.644Z,99642.55
2017-11-30T00:06:06.122Z,99634.91
2017-11-30T00:07:08.605Z,99641.11
2017-11-30T00:08:11.087Z,99631.08
2017-11-30T00:09:13.586Z,99631.27
2017-11-30T00:10:16.053Z,99633.88
2017-11-30T00:11:18.516Z,99634.84
2017-11-30T00:12:20.986Z,99631.05
2017-11-30T00:13:23.478Z,99634.09
2017-11-30T00:14:25.963Z,99631.87
2017-11-30T00:15:28.464Z,99634.63
2017-11-30T00:16:30.934Z,99631.08
2017-11-30T00:17:33.392Z,99629.39
2017-11-30T00:18:35.867Z,99629.85
2017-11-30T00:19:38.348Z,99636.19
2017-11-30T00:20:40.819Z,99638.81
2017-11-30T00:21:43.279Z,99630.19
2017-11-30T00:22:45.763Z,99633.84
2017-11-30T00:23:48.251Z,99637.71
2017-11-30T00:24:50.750Z,99635.34
2017-11-30T00:25:53.208Z,99636.03
2017-11-30T00:26:55.668Z,99637.39
2017-11-30T00:27:58.127Z,99641.58
2017-11-30T00:29:00.592Z,99638.86
2017-11-30T00:30:03.081Z,99634.16
2017-11-30T00:31:05.557Z,99638.14
2017-11-30T00:32:08.033Z,99632.34
2017-11-30T00:33:10.504Z,99636.35
2017-11-30T00:34:12.987Z,99642.02
2017-11-30T00:35:15.482Z,99644.84
2017-11-30T00:36:17.944Z,99639.00
2017-11-30T00:37:20.421Z,99642.27
2017-11-30T00:38:22.906Z,99637.92
2017-11-30T00:39:25.368Z,99637.02
2017-11-30T00:40:27.847Z,99646.19
2017-11-30T00:41:30.338Z,99640.66
2017-11-30T00:42:44.538Z,99643.64
2017-11-30T00:43:47.019Z,99641.83
2017-11-30T00:44:49.502Z,99641.54
2017-11-30T00:45:51.983Z,99639.03
2017-11-30T00:46:54.461Z,99640.49
2017-11-30T00:47:56.921Z,99635.75
2017-11-30T00:48:59.392Z,99633.96
2017-11-30T00:50:01.881Z,99640.25
2017-11-30T00:51:04.371Z,99626.78
2017-11-30T00:52:06.852Z,99627.92
2017-11-30T00:53:09.325Z,99619.66
2017-11-30T00:54:11.805Z,99622.19
2017-11-30T00:55:14.269Z,99625.14
2017-11-30T00:56:16.748Z,99622.31
2017-11-30T00:57:19.208Z,99619.77
2017-11-30T00:58:21.668Z,99622.20
2017-11-30T00:59:24.143Z,99622.92
2017-11-30T01:00:26.599Z,99623.13
2017-11-30T01:01:29.076Z,99626.55
2017-11-30T01:02:31.536Z,99623.42
2017-11-30T01:03:34.001Z,99623.52
2017-11-30T01:04:36.483Z,99621.78
2017-11-30T01:05:38.948Z,99619.63
2017-11-30T01:06:41.425Z,99621.66
2017-11-30T01:07:43.893Z,99621.56
2017-11-30T01:08:46.418Z,99615.69
2017-11-30T01:09:48.899Z,99619.04
2017-11-30T01:10:51.399Z,99618.01
2017-11-30T01:11:53.884Z,99612.86
2017-11-30T01:12:56.366Z,99611.31
2017-11-30T01:13:58.833Z,99614.38
2017-11-30T01:15:01.301Z,99611.52
2017-11-30T01:16:03.775Z,99617.69
2017-11-30T01:17:06.265Z,99611.84
2017-11-30T01:18:08.751Z,99614.95
2017-11-30T01:19:11.234Z,99613.63
2017-11-30T01:20:13.709Z,99611.50
2017-11-30T01:21:28.044Z,99617.37
2017-11-30T01:22:30.536Z,99615.51
2017-11-30T01:23:33.010Z,99618.13
2017-11-30T01:24:35.495Z,99616.30
2017-11-30T01:25:37.967Z,99621.55
2017-11-30T01:26:40.447Z,99622.67
2017-11-30T01:27:42.909Z,99619.39
2017-11-30T01:28:45.376Z,99625.32
2017-11-30T01:29:47.854Z,99622.09
2017-11-30T01:30:50.335Z,99625.41
2017-11-30T01:31:52.795Z,99625.98
2017-11-30T01:32:55.276Z,99624.55
2017-11-30T01:33:57.784Z,99628.66
2017-11-30T01:35:00.257Z,99619.70
2017-11-30T01:36:02.718Z,99622.42
2017-11-30T01:37:05.180Z,99625.45
2017-11-30T01:38:07.651Z,99621.78
2017-11-30T01:39:10.115Z,99621.08
2017-11-30T01:40:12.585Z,99616.33
2017-11-30T01:41:15.056Z,99614.98
2017-11-30T01:42:17.513Z,99612.69
2017-11-30T01:43:19.998Z,99616.34
2017-11-30T01:44:22.460Z,99614.65
2017-11-30T01:45:24.921Z,99608.02
2017-11-30T01:46:27.384Z,99606.45
2017-11-30T01:47:29.861Z,99613.31
2017-11-30T01:48:32.346Z,99613.70
2017-11-30T01:49:34.808Z,99606.72
2017-11-30T01:50:37.274Z,99605.14
2017-11-30T01:51:39.742Z,99598.28
2017-11-30T01:52:42.210Z,99606.38
2017-11-30T01:53:44.691Z,99605.11
2017-11-30T01:54:47.163Z,99608.61
2017-11-30T01:55:49.649Z,99603.89
2017-11-30T01:56:52.126Z,99601.09
2017-11-30T01:57:54.599Z,99598.64
2017-11-30T01:58:57.056Z,99600.23
2017-11-30T01:59:59.515Z,99602.42
2017-11-30T02:01:01.990Z,99601.83
2017-11-30T02:02:04.455Z,99604.20
2017-11-30T02:03:06.930Z,99601.88
2017-11-30T02:04:09.400Z,99603.84
2017-11-30T02:05:11.878Z,99602.09
2017-11-30T02:06:14.350Z,99600.02
2017-11-30T02:07:16.836Z,99591.80
2017-11-30T02:08:19.323Z,99595.17
2017-11-30T02:09:21.780Z,99588.77
2017-11-30T02:10:24.258Z,99590.55
2017-11-30T02:11:26.738Z,99594.83
2017-11-30T02:12:29.214Z,99598.80
2017-11-30T02:13:31.698Z,99601.56
2017-11-30T02:14:34.214Z,99593.82
2017-11-30T02:15:36.711Z,99596.94
2017-11-30T02:16:39.198Z,99601.48
2017-11-30T02:17:41.674Z,99597.37
2017-11-30T02:18:44.144Z,99601.84
2017-11-30T02:19:46.610Z,99600.62
2017-11-30T02:20:49.085Z,99605.27
2017-11-30T02:21:51.558Z,99605.23
2017-11-30T02:22:54.100Z,99602.41
2017-11-30T02:23:56.566Z,99603.85
2017-11-30T02:24:59.033Z,99603.33
2017-11-30T02:26:01.510Z,99599.83
2017-11-30T02:27:04.004Z,99599.70
2017-11-30T02:28:06.469Z,99598.11
2017-11-30T02:29:08.960Z,99601.88
2017-11-30T02:30:11.440Z,99600.45
2017-11-30T02:31:13.923Z,99603.16
2017-11-30T02:32:16.397Z,99600.88
2017-11-30T02:33:18.883Z,99601.21
2017-11-30T02:34:21.359Z,99600.38
2017-11-30T02:35:23.854Z,99597.64
2017-11-30T02:36:26.313Z,99601.84
2017-11-30T02:37:28.796Z,99593.31
2017-11-30T02:38:31.273Z,99593.64
2017-11-30T02:39:33.739Z,99586.97
2017-11-30T02:40:36.227Z,99594.16
2017-11-30T02:41:38.700Z,99597.04
2017-11-30T02:42:41.177Z,99598.11
2017-11-30T02:43:43.642Z,99603.05
2017-11-30T02:44:46.126Z,99596.84
2017-11-30T02:45:48.612Z,99597.58
2017-11-30T02:46:51.090Z,99599.26
2017-11-30T02:47:53.559Z,99600.41
2017-11-30T02:48:56.031Z,99598.33
2017-11-30T02:49:58.495Z,99597.60
2017-11-30T02:51:00.961Z,99594.44
2017-11-30T02:52:03.437Z,99598.27
2017-11-30T02:53:05.915Z,99592.25
2017-11-30T02:54:08.394Z,99595.10
2017-11-30T02:55:10.869Z,99592.30
2017-11-30T02:56:13.346Z,99591.33
2017-11-30T02:57:15.857Z,99591.06
2017-11-30T02:58:18.341Z,99585.31
2017-11-30T02:59:20.805Z,99592.67
2017-11-30T03:00:23.289Z,99589.06
2017-11-30T03:01:25.760Z,99590.84
2017-11-30T03:02:28.230Z,99590.77
2017-11-30T03:03:30.688Z,99585.30
2017-11-30T03:04:33.162Z,99585.43
2017-11-30T03:05:35.651Z,99583.35
2017-11-30T03:06:38.121Z,99582.41
2017-11-30T03:07:40.598Z,99577.28
2017-11-30T03:08:43.075Z,99577.72
2017-11-30T03:09:45.532Z,99571.72
2017-11-30T03:10:47.988Z,99572.63
2017-11-30T03:11:50.467Z,99571.33
2017-11-30T03:12:52.933Z,99573.97
2017-11-30T03:13:55.423Z,99571.69
2017-11-30T03:14:57.998Z,99567.83
2017-11-30T03:16:00.489Z,99572.29
2017-11-30T03:17:02.968Z,99565.67
2017-11-30T03:18:05.432Z,99566.89
2017-11-30T03:19:07.892Z,99565.96
2017-11-30T03:20:10.357Z,99568.13
2017-11-30T03:21:12.834Z,99570.28
2017-11-30T03:22:15.319Z,99564.93
2017-11-30T03:23:17.815Z,99571.09
2017-11-30T03:24:20.297Z,99563.62
2017-11-30T03:25:22.768Z,99566.52
2017-11-30T03:26:25.245Z,99557.53
2017-11-30T03:27:27.705Z,99560.34
2017-11-30T03:28:30.168Z,99561.79
2017-11-30T03:29:32.636Z,99564.70
2017-11-30T03:30:35.118Z,99564.07
2017-11-30T03:31:37.606Z,99566.45
2017-11-30T03:32:40.082Z,99562.88
2017-11-30T03:33:42.582Z,99563.34
2017-11-30T03:34:45.058Z,99558.52
2017-11-30T03:35:47.534Z,99563.05
2017-11-30T03:36:49.995Z,99550.45
2017-11-30T03:37:52.464Z,99559.31
2017-11-30T03:38:54.938Z,99557.19
2017-11-30T03:39:57.425Z,99559.87
2017-11-30T03:40:59.908Z,99556.73
2017-11-30T03:42:02.422Z,99554.95
2017-11-30T03:43:04.934Z,99560.70
2017-11-30T03:44:07.437Z,99561.36
2017-11-30T03:45:09.936Z,99562.78
2017-11-30T03:46:12.444Z,99565.22
2017-11-30T03:47:14.931Z,99561.59
2017-11-30T03:48:17.467Z,99563.17
2017-11-30T03:49:19.954Z,99560.34
2017-11-30T03:50:22.434Z,99552.70
2017-11-30T03:51:24.922Z,99560.13
2017-11-30T03:52:27.418Z,99554.87
2017-11-30T03:53:29.910Z,99558.20
2017-11-30T03:54:32.390Z,99551.97
2017-11-30T03:55:34.858Z,99555.93
2017-11-30T03:56:37.341Z,99556.47
2017-11-30T03:57:39.820Z,99555.91
2017-11-30T03:58:42.317Z,99554.89
2017-11-30T03:59:44.786Z,99555.91
2017-11-30T04:00:47.269Z,99558.87
2017-11-30T04:01:49.751Z,99557.53
2017-11-30T04:02:52.263Z,99555.02
2017-11-30T04:03:54.762Z,99558.48
2017-11-30T04:04:57.256Z,99557.73
2017-11-30T04:05:59.742Z,99557.70
2017-11-30T04:07:02.213Z,99558.59
2017-11-30T04:08:04.707Z,99559.84
2017-11-30T04:09:07.186Z,99555.78
2017-11-30T04:10:09.665Z,99555.95
2017-11-30T04:11:12.124Z,99552.77
2017-11-30T04:12:14.584Z,99552.86
2017-11-30T04:13:17.056Z,99557.68
2017-11-30T04:14:19.539Z,99549.83
2017-11-30T04:15:22.019Z,99547.08
2017-11-30T04:16:24.472Z,99547.12
2017-11-30T04:17:26.928Z,99547.26
2017-11-30T04:18:29.390Z,99557.91
2017-11-30T04:19:31.883Z,99553.23
2017-11-30T04:20:34.361Z,99550.53
2017-11-30T04:21:36.846Z,99553.03
2017-11-30T04:22:39.322Z,99542.00
2017-11-30T04:23:41.798Z,99549.57
2017-11-30T04:24:44.290Z,99548.17
2017-11-30T04:25:46.752Z,99547.17
2017-11-30T04:26:49.226Z,99546.45
2017-11-30T04:27:51.708Z,99546.05
2017-11-30T04:28:54.169Z,99540.38
2017-11-30T04:29:56.660Z,99545.22
2017-11-30T04:30:59.163Z,99540.30
2017-11-30T04:32:01.636Z,99535.52
2017-11-30T04:33:04.091Z,99534.16
2017-11-30T04:34:06.573Z,99536.70
2017-11-30T04:35:09.080Z,99535.34
2017-11-30T04:36:11.548Z,99532.25
2017-11-30T04:37:14.028Z,99528.92
2017-11-30T04:38:16.484Z,99533.58
2017-11-30T04:39:18.952Z,99527.66
2017-11-30T04:40:21.460Z,99523.47
2017-11-30T04:41:23.934Z,99526.92
2017-11-30T04:42:26.418Z,99524.52
2017-11-30T04:43:28.895Z,99520.36
2017-11-30T04:44:31.365Z,99511.55
2017-11-30T04:45:33.853Z,99519.56
2017-11-30T04:46:36.336Z,99524.34
2017-11-30T04:47:38.810Z,99524.61
2017-11-30T04:48:41.286Z,99522.98
2017-11-30T04:49:43.753Z,99532.55
2017-11-30T04:50:46.261Z,99533.33
2017-11-30T04:51:48.742Z,99533.11
2017-11-30T04:52:51.219Z,99536.09
2017-11-30T04:53:53.701Z,99529.81
2017-11-30T04:54:56.187Z,99528.59
2017-11-30T04:55:58.666Z,99534.27
2017-11-30T04:57:01.222Z,99532.74
2017-11-30T04:58:03.698Z,99528.69
2017-11-30T04:59:06.165Z,99534.48
2017-11-30T05:00:08.641Z,99532.05
2017-11-30T05:01:11.123Z,99530.30
2017-11-30T05:02:13.651Z,99521.95
2017-11-30T05:03:16.125Z,99526.02
2017-11-30T05:04:18.634Z,99526.04
2017-11-30T05:05:21.093Z,99521.45
2017-11-30T05:06:23.565Z,99525.98
2017-11-30T05:07:26.028Z,99519.36
2017-11-30T05:08:28.510Z,99518.44
2017-11-30T05:09:30.983Z,99519.31
2017-11-30T05:10:33.458Z,99519.13
2017-11-30T05:11:35.934Z,99523.33
2017-11-30T05:12:38.397Z,99524.22
2017-11-30T05:13:40.923Z,99522.73
2017-11-30T05:14:43.401Z,99519.95
2017-11-30T05:15:45.879Z,99518.20
2017-11-30T05:16:48.336Z,99519.47
2017-11-30T05:17:50.796Z,99513.02
2017-11-30T05:18:53.273Z,99507.71
2017-11-30T05:19:55.746Z,99508.23
2017-11-30T05:20:58.212Z,99502.62
2017-11-30T05:22:00.690Z,99509.46
2017-11-30T05:23:03.165Z,99497.14
2017-11-30T05:24:05.628Z,99501.20
2017-11-30T05:25:08.113Z,99505.98
2017-11-30T05:26:10.587Z,99506.95
2017-11-30T05:27:13.078Z,99511.41
2017-11-30T05:28:15.555Z,99508.11
2017-11-30T05:29:18.030Z,99506.85
2017-11-30T05:30:20.494Z,99505.33
2017-11-30T05:31:22.960Z,99511.02
2017-11-30T05:32:25.438Z,99513.13
2017-11-30T05:33:27.921Z,99512.47
2017-11-30T05:34:30.403Z,99502.98
2017-11-30T05:35:32.883Z,99507.21
2017-11-30T05:36:35.347Z,99507.28
2017-11-30T05:37:37.808Z,99497.44
2017-11-30T05:38:40.312Z,99504.91
2017-11-30T05:39:42.776Z,99502.13
2017-11-30T05:40:45.257Z,99499.55
2017-11-30T05:41:47.738Z,99501.87
2017-11-30T05:42:50.221Z,99498.20
2017-11-30T05:43:52.680Z,99499.75
2017-11-30T05:44:55.152Z,99494.99
2017-11-30T05:45:57.638Z,99496.48
2017-11-30T05:47:00.149Z,99498.86
2017-11-30T05:48:02.620Z,99489.22
2017-11-30T05:49:05.103Z,99498.96
2017-11-30T05:50:07.576Z,99496.80
2017-11-30T05:51:10.045Z,99504.14
2017-11-30T05:52:12.528Z,99498.74
2017-11-30T05:53:14.988Z,99505.50
2017-11-30T05:54:17.462Z,99508.11
2017-11-30T05:55:19.931Z,99510.14
2017-11-30T05:56:22.406Z,99508.16
2017-11-30T05:57:24.894Z,99505.03
2017-11-30T05:58:27.375Z,99499.72
2017-11-30T05:59:29.851Z,99499.22
2017-11-30T06:00:32.326Z,99490.44
2017-11-30T06:01:34.799Z,99493.45
2017-11-30T06:02:37.287Z,99498.50
2017-11-30T06:03:39.752Z,99495.75
2017-11-30T06:04:42.235Z,99496.05
2017-11-30T06:05:44.709Z,99493.84
2017-11-30T06:06:47.190Z,99494.70
2017-11-30T06:07:49.658Z,99495.59
2017-11-30T06:08:52.153Z,99494.30
2017-11-30T06:09:54.640Z,99500.51
2017-11-30T06:10:57.104Z,99497.97
2017-11-30T06:11:59.592Z,99503.09
2017-11-30T06:13:02.065Z,99498.66
2017-11-30T06:14:04.565Z,99498.46
2017-11-30T06:15:07.123Z,99498.89
2017-11-30T06:16:09.636Z,99503.19
2017-11-30T06:17:12.172Z,99502.03
2017-11-30T06:18:14.638Z,99504.18
2017-11-30T06:19:17.124Z,99500.61
2017-11-30T06:20:19.601Z,99494.63
2017-11-30T06:21:22.074Z,99502.27
2017-11-30T06:22:24.622Z,99501.64
2017-11-30T06:23:27.146Z,99510.52
2017-11-30T06:24:29.851Z,99507.16
2017-11-30T06:25:32.332Z,99499.62
2017-11-30T06:26:34.814Z,99503.19
2017-11-30T06:27:37.289Z,99502.42
2017-11-30T06:28:39.748Z,99499.81
2017-11-30T06:29:42.231Z,99495.63
2017-11-30T06:30:44.730Z,99491.46
2017-11-30T06:31:47.212Z,99489.42
2017-11-30T06:32:49.679Z,99497.14
2017-11-30T06:33:52.160Z,99496.81
2017-11-30T06:34:54.684Z,99494.34
2017-11-30T06:35:57.144Z,99492.98
2017-11-30T06:36:59.608Z,99498.33
2017-11-30T06:38:02.092Z,99498.17
2017-11-30T06:39:04.571Z,99500.25
2017-11-30T06:40:07.052Z,99499.48
2017-11-30T06:41:09.534Z,99492.48
2017-11-30T06:42:11.999Z,99490.60
2017-11-30T06:43:14.465Z,99496.62
2017-11-30T06:44:16.968Z,99492.02
2017-11-30T06:45:19.466Z,99496.09
2017-11-30T06:46:22.004Z,99493.73
2017-11-30T06:47:24.482Z,99490.00
2017-11-30T06:48:26.966Z,99493.71
2017-11-30T06:49:29.456Z,99490.53
2017-11-30T06:50:31.938Z,99492.31
2017-11-30T06:51:34.420Z,99492.75
2017-11-30T06:52:36.892Z,99488.92
2017-11-30T06:53:39.357Z,99489.38
2017-11-30T06:54:41.831Z,99487.93
2017-11-30T06:55:44.303Z,99488.09
2017-11-30T06:56:46.778Z,99488.39
2017-11-30T06:57:49.258Z,99489.34
2017-11-30T06:58:51.724Z,99486.08
2017-11-30T06:59:54.199Z,99490.37
2017-11-30T07:00:56.660Z,99489.81
2017-11-30T07:01:59.124Z,99488.22
2017-11-30T07:03:01.613Z,99488.81
2017-11-30T07:04:04.220Z,99493.28
2017-11-30T07:05:06.711Z,99494.34
2017-11-30T07:06:09.184Z,99495.78
2017-11-30T07:07:11.651Z,99499.16
2017-11-30T07:08:14.155Z,99496.05
2017-11-30T07:09:16.637Z,99489.19
2017-11-30T07:10:19.138Z,99490.47
2017-11-30T07:11:21.603Z,99497.17
2017-11-30T07:12:24.086Z,99496.41
2017-11-30T07:13:26.556Z,99496.55
2017-11-30T07:14:29.024Z,99497.77
2017-11-30T07:15:31.498Z,99502.72
2017-11-30T07:16:33.990Z,99505.27
2017-11-30T07:17:36.453Z,99502.16
2017-11-30T07:18:38.919Z,99506.81
2017-11-30T07:19:41.410Z,99501.66
2017-11-30T07:20:44.016Z,99500.38
2017-11-30T07:21:46.484Z,99497.24
2017-11-30T07:22:48.948Z,99503.41
2017-11-30T07:23:51.430Z,99504.10
2017-11-30T07:24:53.896Z,99501.66
2017-11-30T07:25:56.364Z,99503.78
2017-11-30T07:26:58.858Z,99502.79
2017-11-30T07:28:01.327Z,99505.14
2017-11-30T07:29:03.792Z,99500.91
2017-11-30T07:30:06.286Z,99505.33
2017-11-30T07:31:08.771Z,99507.64
2017-11-30T07:32:11.245Z,99497.86
2017-11-30T07:33:13.713Z,99500.70
2017-11-30T07:34:16.210Z,99504.70
2017-11-30T07:35:18.690Z,99497.21
2017-11-30T07:36:21.170Z,99499.98
2017-11-30T07:37:23.636Z,99499.34
2017-11-30T07:38:26.118Z,99500.88
2017-11-30T07:39:28.586Z,99503.44
2017-11-30T07:40:31.070Z,99497.63
2017-11-30T07:41:33.538Z,99502.50
2017-11-30T07:42:36.014Z,99505.41
2017-11-30T07:43:38.492Z,99506.36
2017-11-30T07:44:40.960Z,99507.59
2017-11-30T07:45:43.439Z,99503.33
2017-11-30T07:46:45.901Z,99505.67
2017-11-30T07:47:48.383Z,99505.75
2017-11-30T07:48:50.844Z,99506.84
2017-11-30T07:49:53.318Z,99505.45
2017-11-30T07:50:55.789Z,99509.48
2017-11-30T07:51:58.256Z,99507.72
2017-11-30T07:53:00.738Z,99505.55
2017-11-30T07:54:03.217Z,99508.36
2017-11-30T07:55:05.678Z,99505.19
2017-11-30T07:56:08.136Z,99506.41
2017-11-30T07:57:10.592Z,99505.33
2017-11-30T07:58:13.107Z,99506.09
2017-11-30T07:59:15.592Z,99509.22
2017-11-30T08:00:18.079Z,99508.53
2017-11-30T08:01:20.565Z,99504.94
2017-11-30T08:02:23.031Z,99511.29
2017-11-30T08:03:25.537Z,99511.76
2017-11-30T08:04:28.009Z,99509.42
2017-11-30T08:05:30.516Z,99511.09
2017-11-30T08:06:33.006Z,99511.98
2017-11-30T08:07:35.464Z,99516.84
2017-11-30T08:08:37.927Z,99512.86
2017-11-30T08:09:40.392Z,99514.78
2017-11-30T08:10:42.871Z,99514.00
2017-11-30T08:11:45.342Z,99515.68
2017-11-30T08:12:47.804Z,99509.66
2017-11-30T08:13:50.263Z,99517.92
2017-11-30T08:14:52.840Z,99508.92
2017-11-30T08:15:55.300Z,99516.78
2017-11-30T08:16:57.779Z,99517.48
2017-11-30T08:18:00.250Z,99516.66
2017-11-30T08:19:02.733Z,99519.44
2017-11-30T08:20:05.418Z,99511.05
2017-11-30T08:21:07.996Z,99515.63
2017-11-30T08:22:10.459Z,99514.90
2017-11-30T08:23:12.964Z,99514.91
2017-11-30T08:24:15.439Z,99511.43
2017-11-30T08:25:18.185Z,99513.47
2017-11-30T08:26:20.653Z,99514.27
2017-11-30T08:27:23.113Z,99511.34
2017-11-30T08:28:25.579Z,99509.98
2017-11-30T08:29:28.062Z,99510.58
2017-11-30T08:30:30.551Z,99509.53
2017-11-30T08:31:33.025Z,99516.89
2017-11-30T08:32:35.518Z,99509.59
2017-11-30T08:33:37.986Z,99511.43
2017-11-30T08:34:40.455Z,99504.49
2017-11-30T08:35:42.939Z,99507.95
2017-11-30T08:36:45.404Z,99510.57
2017-11-30T08:37:47.882Z,99507.35
2017-11-30T08:38:50.389Z,99508.65
2017-11-30T08:39:52.870Z,99508.07
2017-11-30T08:40:55.409Z,99506.08
2017-11-30T08:41:57.879Z,99501.44
2017-11-30T08:43:00.377Z,99509.57
2017-11-30T08:44:02.878Z,99507.83
2017-11-30T08:45:05.355Z,99513.61
2017-11-30T08:46:07.846Z,99505.02
2017-11-30T08:47:10.312Z,99509.95
2017-11-30T08:48:12.786Z,99508.16
2017-11-30T08:49:15.272Z,99503.91
2017-11-30T08:50:17.781Z,99504.02
2017-11-30T08:51:20.283Z,99503.91
2017-11-30T08:52:22.853Z,99508.55
2017-11-30T08:53:25.319Z,99501.93
2017-11-30T08:54:27.802Z,99497.98
2017-11-30T08:55:30.264Z,99499.80
2017-11-30T08:56:32.741Z,99506.56
2017-11-30T08:57:35.217Z,99502.51
2017-11-30T08:58:37.702Z,99502.74
2017-11-30T08:59:40.174Z,99505.05
2017-11-30T09:00:42.660Z,99501.65
2017-11-30T09:01:45.139Z,99501.23
2017-11-30T09:02:47.683Z,99499.69
2017-11-30T09:03:50.156Z,99496.59
2017-11-30T09:04:52.643Z,99495.61
2017-11-30T09:05:55.173Z,99497.75
2017-11-30T09:06:57.658Z,99494.23
2017-11-30T09:08:00.140Z,99492.65
2017-11-30T09:09:02.625Z,99491.11
2017-11-30T09:10:05.113Z,99491.41
2017-11-30T09:11:07.593Z,99493.22
2017-11-30T09:12:10.060Z,99494.67
2017-11-30T09:13:12.542Z,99490.44
2017-11-30T09:14:15.007Z,99486.03
2017-11-30T09:15:17.488Z,99495.97
2017-11-30T09:16:19.972Z,99493.23
2017-11-30T09:17:22.477Z,99491.19
2017-11-30T09:18:24.951Z,99493.13
2017-11-30T09:19:27.429Z,99494.95
2017-11-30T09:20:29.895Z,99495.63
2017-11-30T09:21:32.403Z,99499.00
2017-11-30T09:22:34.887Z,99493.94
2017-11-30T09:23:37.709Z,99492.06
2017-11-30T09:24:40.193Z,99488.19
2017-11-30T09:25:42.669Z,99488.36
2017-11-30T09:26:45.135Z,99487.76
2017-11-30T09:27:47.610Z,99488.77
2017-11-30T09:28:50.090Z,99483.05
2017-11-30T09:29:52.697Z,99488.10
2017-11-30T09:30:55.178Z,99486.42
2017-11-30T09:31:57.646Z,99483.52
2017-11-30T09:33:00.108Z,99479.41
2017-11-30T09:34:02.598Z,99483.05
2017-11-30T09:35:05.062Z,99481.98
2017-11-30T09:36:07.554Z,99481.88
2017-11-30T09:37:10.036Z,99481.56
2017-11-30T09:38:12.505Z,99481.18
2017-11-30T09:39:14.987Z,99482.67
2017-11-30T09:40:17.464Z,99484.27
2017-11-30T09:41:19.925Z,99472.12
2017-11-30T09:42:22.420Z,99476.55
2017-11-30T09:43:24.916Z,99481.60
2017-11-30T09:44:27.404Z,99473.23
2017-11-30T09:45:29.986Z,99477.60
2017-11-30T09:46:32.441Z,99480.17
2017-11-30T09:47:35.043Z,99478.25
2017-11-30T09:48:37.511Z,99480.12
2017-11-30T09:49:39.999Z,99475.64
2017-11-30T09:50:42.528Z,99478.34
2017-11-30T09:51:45.808Z,99476.00
2017-11-30T09:52:48.292Z,99477.78
2017-11-30T09:53:50.770Z,99473.64
2017-11-30T09:54:53.285Z,99477.84
2017-11-30T09:55:55.757Z,99469.20
2017-11-30T09:56:58.237Z,99474.20
2017-11-30T09:58:00.829Z,99470.61
2017-11-30T09:59:03.390Z,99468.55
2017-11-30T10:00:05.871Z,99460.73
2017-11-30T10:01:08.350Z,99467.91
2017-11-30T10:02:10.812Z,99465.30
2017-11-30T10:03:13.318Z,99465.41
2017-11-30T10:04:15.793Z,99467.95
2017-11-30T10:05:18.270Z,99471.64
2017-11-30T10:06:20.731Z,99465.52
2017-11-30T10:07:23.210Z,99466.23
2017-11-30T10:08:25.712Z,99463.45
2017-11-30T10:09:28.167Z,99462.72
2017-11-30T10:10:30.637Z,99458.61
2017-11-30T10:11:33.108Z,99455.91
2017-11-30T10:12:35.585Z,99460.05
2017-11-30T10:13:38.067Z,99455.45
2017-11-30T10:14:40.532Z,99455.76
2017-11-30T10:15:43.151Z,99452.34
2017-11-30T10:16:45.608Z,99457.77
2017-11-30T10:17:48.096Z,99452.31
2017-11-30T10:18:50.629Z,99450.86
2017-11-30T10:19:53.103Z,99449.22
2017-11-30T10:20:55.576Z,99447.50
2017-11-30T10:21:58.047Z,99452.34
2017-11-30T10:23:00.527Z,99450.45
2017-11-30T10:24:03.144Z,99445.70
2017-11-30T10:25:05.620Z,99441.56
2017-11-30T10:26:08.099Z,99442.81
2017-11-30T10:27:10.570Z,99444.63
2017-11-30T10:28:13.042Z,99447.15
2017-11-30T10:29:15.557Z,99446.34
2017-11-30T10:30:18.029Z,99450.31
2017-11-30T10:31:20.530Z,99444.59
2017-11-30T10:32:22.992Z,99445.17
2017-11-30T10:33:25.608Z,99448.89
2017-11-30T10:34:28.092Z,99448.30
2017-11-30T10:35:30.557Z,99447.77
2017-11-30T10:36:33.025Z,99446.23
2017-11-30T10:37:35.518Z,99442.80
2017-11-30T10:38:37.981Z,99443.36
2017-11-30T10:39:40.483Z,99447.00
2017-11-30T10:40:42.978Z,99443.09
2017-11-30T10:41:45.799Z,99441.48
2017-11-30T10:42:48.270Z,99438.23
2017-11-30T10:43:50.747Z,99433.16
2017-11-30T10:44:53.251Z,99437.37
2017-11-30T10:45:55.716Z,99438.20
2017-11-30T10:46:58.190Z,99434.25
2017-11-30T10:48:00.643Z,99435.63
2017-11-30T10:49:03.129Z,99429.07
2017-11-30T10:50:05.621Z,99429.16
2017-11-30T10:51:08.101Z,99426.78
2017-11-30T10:52:10.555Z,99430.30
2017-11-30T10:53:13.025Z,99419.66
2017-11-30T10:54:15.505Z,99426.44
2017-11-30T10:55:17.988Z,99427.21
2017-11-30T10:56:20.461Z,99424.27
2017-11-30T10:57:22.928Z,99422.58
2017-11-30T10:58:25.408Z,99421.17
2017-11-30T10:59:27.913Z,99421.66
2017-11-30T11:00:30.394Z,99421.92
2017-11-30T11:01:32.856Z,99419.58
2017-11-30T11:02:35.313Z,99420.49
2017-11-30T11:03:37.779Z,99420.23
2017-11-30T11:04:40.240Z,99417.89
2017-11-30T11:05:42.757Z,99412.59
2017-11-30T11:06:45.230Z,99413.45
2017-11-30T11:07:47.705Z,99415.97
2017-11-30T11:08:50.182Z,99410.45
2017-11-30T11:09:52.647Z,99409.98
2017-11-30T11:10:55.131Z,99413.94
2017-11-30T11:11:57.606Z,99415.66
2017-11-30T11:13:00.085Z,99418.31
2017-11-30T11:14:02.564Z,99418.11
2017-11-30T11:15:05.034Z,99412.62
2017-11-30T11:16:07.564Z,99414.79
2017-11-30T11:17:10.034Z,99415.11
2017-11-30T11:18:12.497Z,99417.57
2017-11-30T11:19:14.990Z,99412.70
2017-11-30T11:20:17.475Z,99410.36
2017-11-30T11:21:19.975Z,99411.85
2017-11-30T11:22:22.462Z,99410.65
2017-11-30T11:23:24.953Z,99415.68
2017-11-30T11:24:27.434Z,99413.25
2017-11-30T11:25:29.913Z,99414.30
2017-11-30T11:26:32.414Z,99404.47
2017-11-30T11:27:34.871Z,99408.16
2017-11-30T11:28:37.351Z,99406.33
2017-11-30T11:29:39.828Z,99407.59
2017-11-30T11:30:42.292Z,99406.67
2017-11-30T11:31:44.785Z,99407.16
2017-11-30T11:32:47.249Z,99409.61
2017-11-30T11:33:49.731Z,99406.90
2017-11-30T11:34:52.235Z,99411.11
2017-11-30T11:35:54.696Z,99409.02
2017-11-30T11:36:57.203Z,99411.84
2017-11-30T11:37:59.833Z,99410.61
2017-11-30T11:39:02.312Z,99403.66
2017-11-30T11:40:04.775Z,99403.28
2017-11-30T11:41:07.235Z,99406.23
2017-11-30T11:42:09.804Z,99405.23
2017-11-30T11:43:12.363Z,99402.06
2017-11-30T11:44:14.843Z,99405.41
2017-11-30T11:45:17.319Z,99406.16
2017-11-30T11:46:19.799Z,99400.27
2017-11-30T11:47:22.275Z,99400.03
2017-11-30T11:48:24.735Z,99398.63
2017-11-30T11:49:27.196Z,99400.63
2017-11-30T11:50:29.674Z,99396.90
2017-11-30T11:51:32.155Z,99399.09
2017-11-30T11:52:34.669Z,99395.41
2017-11-30T11:53:37.123Z,99404.23
2017-11-30T11:54:39.595Z,99397.02
2017-11-30T11:55:42.072Z,99398.19
2017-11-30T11:56:44.563Z,99393.41
2017-11-30T11:57:47.062Z,99395.48
2017-11-30T11:58:49.558Z,99395.30
2017-11-30T11:59:52.017Z,99392.58
2017-11-30T12:00:54.498Z,99394.58
2017-11-30T12:01:56.977Z,99393.23
2017-11-30T12:02:59.471Z,99393.55
2017-11-30T12:04:01.952Z,99392.47
2017-11-30T12:05:04.446Z,99387.83
2017-11-30T12:06:06.918Z,99393.74
2017-11-30T12:07:09.375Z,99392.62
2017-11-30T12:08:11.852Z,99394.13
2017-11-30T12:09:14.420Z,99389.01
2017-11-30T12:10:16.884Z,99393.33
2017-11-30T12:11:19.344Z,99392.63
2017-11-30T12:12:21.826Z,99393.08
2017-11-30T12:13:24.334Z,99388.85
2017-11-30T12:14:26.814Z,99392.39